Pineview, Georgia
Current Conditions -  °F | °C
As of 3:55 PM on Sunday 21 Dec 2014 (Local Time) from KCKF Reporting Station
Drizzle Drizzle  
Wind Chill: 52°   Ceiling: 600
Heat Index: 52°   Visibility: 2mi
Dew Point: 50°   Wind: 7mph
Humidity: 94%   Direction: 60°ENE
Pressure: 30.09"   Gusts: NA
Location:  32.11°N, 83.5°W
Report Text: KCKF 212055Z AUTO 06006KT 2SM DZ OVC006 11/10 A3009 RMK AO2 T01100100
Loading
Personal Weather Stations






























Interactive Weather Map New forecast layout! Learn more

10-Day Weather Forecast

Advertisements
Track Severe Weather on mobile